createdAt,value
2022-10-31T00:00:04.373Z,83
2022-10-31T00:01:00.924Z,83
2022-10-31T00:02:01.047Z,83
2022-10-31T00:03:01.366Z,83
2022-10-31T00:04:01.005Z,83
2022-10-31T00:05:04.111Z,83
2022-10-31T00:06:01.307Z,83
2022-10-31T00:07:00.974Z,83
2022-10-31T00:08:01.023Z,83
2022-10-31T00:09:00.972Z,83
2022-10-31T00:10:04.463Z,83
2022-10-31T00:11:00.971Z,83
2022-10-31T00:12:01.093Z,83
2022-10-31T00:13:01.417Z,83
2022-10-31T00:14:01.093Z,83
2022-10-31T00:15:04.028Z,83
2022-10-31T00:16:01.114Z,83
2022-10-31T00:17:01.023Z,83
2022-10-31T00:18:01.419Z,83
2022-10-31T00:19:01.053Z,83
2022-10-31T00:20:05.726Z,83
2022-10-31T00:21:01.058Z,83
2022-10-31T00:22:01.121Z,83
2022-10-31T00:23:01.071Z,83
2022-10-31T00:24:01.279Z,83
2022-10-31T00:25:03.867Z,83
2022-10-31T00:26:01.153Z,83
2022-10-31T00:27:01.096Z,83
2022-10-31T00:28:01.504Z,83
2022-10-31T00:29:01.105Z,83
2022-10-31T00:30:05.780Z,83
2022-10-31T00:31:01.114Z,83
2022-10-31T00:32:01.185Z,83
2022-10-31T00:33:01.356Z,83
2022-10-31T00:34:01.176Z,83
2022-10-31T00:35:03.929Z,83
2022-10-31T00:36:01.243Z,83
2022-10-31T00:37:01.153Z,83
2022-10-31T00:38:01.219Z,83
2022-10-31T00:39:01.158Z,83
2022-10-31T00:40:05.857Z,83
2022-10-31T00:41:00.174Z,83
2022-10-31T00:42:00.281Z,83
2022-10-31T00:43:00.577Z,83
2022-10-31T00:44:00.242Z,83
2022-10-31T00:45:03.150Z,83
2022-10-31T00:46:00.290Z,83
2022-10-31T00:47:00.222Z,83
2022-10-31T00:48:00.629Z,83
2022-10-31T00:49:00.223Z,84
2022-10-31T00:50:25.315Z,84
2022-10-31T00:51:00.259Z,84
2022-10-31T00:52:00.319Z,84
2022-10-31T00:53:00.261Z,84
2022-10-31T00:54:00.362Z,84
2022-10-31T00:55:03.147Z,84
2022-10-31T00:56:00.352Z,84
2022-10-31T00:57:00.297Z,84
2022-10-31T00:58:00.630Z,84
2022-10-31T00:59:00.295Z,84
2022-10-31T01:00:03.916Z,84
2022-10-31T01:01:00.377Z,84
2022-10-31T01:02:00.570Z,84
2022-10-31T01:03:00.675Z,84
2022-10-31T01:04:00.392Z,84
2022-10-31T01:05:03.531Z,84
2022-10-31T01:06:00.433Z,84
2022-10-31T01:07:00.330Z,84
2022-10-31T01:08:00.435Z,84
2022-10-31T01:09:00.363Z,84
2022-10-31T01:10:03.714Z,84
2022-10-31T01:11:00.364Z,84
2022-10-31T01:12:00.487Z,84
2022-10-31T01:13:00.763Z,84
2022-10-31T01:14:00.440Z,84
2022-10-31T01:15:03.195Z,84
2022-10-31T01:16:00.487Z,84
2022-10-31T01:17:00.420Z,84
2022-10-31T01:18:00.940Z,84
2022-10-31T01:19:00.417Z,84
2022-10-31T01:20:03.968Z,84
2022-10-31T01:21:00.452Z,84
2022-10-31T01:22:00.512Z,84
2022-10-31T01:23:00.460Z,84
2022-10-31T01:24:00.563Z,84
2022-10-31T01:25:03.269Z,84
2022-10-31T01:26:00.546Z,84
2022-10-31T01:27:00.490Z,84
2022-10-31T01:28:00.893Z,84
2022-10-31T01:29:00.504Z,85
2022-10-31T01:30:03.974Z,85
2022-10-31T01:31:00.503Z,85
2022-10-31T01:32:00.576Z,85
2022-10-31T01:33:00.804Z,85
2022-10-31T01:34:00.620Z,84
2022-10-31T01:35:03.375Z,84
2022-10-31T01:36:00.636Z,84
2022-10-31T01:37:00.560Z,84
2022-10-31T01:38:00.624Z,84
2022-10-31T01:39:00.586Z,84
2022-10-31T01:40:03.914Z,84
2022-10-31T01:41:00.592Z,84
2022-10-31T01:42:00.674Z,85
2022-10-31T01:43:01.006Z,85
2022-10-31T01:44:00.660Z,85
2022-10-31T01:45:06.016Z,85
2022-10-31T01:46:00.691Z,85
2022-10-31T01:47:00.614Z,85
2022-10-31T01:48:00.973Z,85
2022-10-31T01:49:00.633Z,85
2022-10-31T01:50:05.730Z,85
2022-10-31T01:51:00.656Z,85
2022-10-31T01:52:00.711Z,85
2022-10-31T01:53:00.646Z,85
2022-10-31T01:54:00.774Z,85
2022-10-31T01:55:03.844Z,85
2022-10-31T01:56:00.733Z,85
2022-10-31T01:57:00.775Z,85
2022-10-31T01:58:01.242Z,85
2022-10-31T01:59:00.683Z,85
2022-10-31T02:00:05.877Z,85
2022-10-31T02:01:03.459Z,85
2022-10-31T02:02:00.880Z,85
2022-10-31T02:03:01.074Z,86
2022-10-31T02:04:00.861Z,86
2022-10-31T02:05:05.003Z,86
2022-10-31T02:06:00.886Z,86
2022-10-31T02:07:00.765Z,86
2022-10-31T02:08:00.862Z,86
2022-10-31T02:09:00.794Z,86
2022-10-31T02:10:05.710Z,86
2022-10-31T02:11:00.798Z,86
2022-10-31T02:12:00.902Z,86
2022-10-31T02:13:01.310Z,86
2022-10-31T02:14:00.889Z,86
2022-10-31T02:15:04.101Z,86
2022-10-31T02:16:00.917Z,86
2022-10-31T02:17:00.821Z,86
2022-10-31T02:18:01.315Z,86
2022-10-31T02:19:00.840Z,86
2022-10-31T02:20:05.681Z,86
2022-10-31T02:21:00.887Z,86
2022-10-31T02:22:00.998Z,86
2022-10-31T02:23:00.873Z,86
2022-10-31T02:24:00.972Z,86
2022-10-31T02:25:03.721Z,86
2022-10-31T02:26:00.961Z,86
2022-10-31T02:27:00.924Z,86
2022-10-31T02:28:01.491Z,86
2022-10-31T02:29:00.910Z,86
2022-10-31T02:30:06.036Z,86
2022-10-31T02:31:00.956Z,86
2022-10-31T02:32:01.006Z,86
2022-10-31T02:33:01.203Z,86
2022-10-31T02:34:01.239Z,86
2022-10-31T02:35:03.882Z,86
2022-10-31T02:36:01.062Z,86
2022-10-31T02:37:00.983Z,86
2022-10-31T02:38:01.064Z,86
2022-10-31T02:39:00.993Z,86
2022-10-31T02:40:05.982Z,86
2022-10-31T02:41:01.008Z,86
2022-10-31T02:42:01.103Z,86
2022-10-31T02:43:01.312Z,86
2022-10-31T02:44:01.094Z,86
2022-10-31T02:45:04.063Z,86
2022-10-31T02:46:01.156Z,86
2022-10-31T02:47:01.046Z,86
2022-10-31T02:48:01.575Z,86
2022-10-31T02:49:01.078Z,86
2022-10-31T02:50:04.379Z,86
2022-10-31T02:51:01.084Z,86
2022-10-31T02:52:01.195Z,86
2022-10-31T02:53:01.077Z,86
2022-10-31T02:54:01.193Z,86
2022-10-31T02:55:03.956Z,86
2022-10-31T02:56:01.175Z,86
2022-10-31T02:57:01.155Z,86
2022-10-31T02:58:01.531Z,86
2022-10-31T02:59:01.140Z,86
2022-10-31T03:00:05.815Z,86
2022-10-31T03:01:01.289Z,86
2022-10-31T03:02:01.363Z,86
2022-10-31T03:03:00.424Z,86
2022-10-31T03:04:00.281Z,86
2022-10-31T03:05:03.129Z,86
2022-10-31T03:06:00.274Z,86
2022-10-31T03:07:00.189Z,86
2022-10-31T03:08:00.267Z,86
2022-10-31T03:09:00.246Z,86
2022-10-31T03:10:03.735Z,86
2022-10-31T03:11:00.218Z,86
2022-10-31T03:12:00.304Z,86
2022-10-31T03:13:00.701Z,86
2022-10-31T03:14:00.309Z,86
2022-10-31T03:15:03.049Z,86
2022-10-31T03:16:00.369Z,86
2022-10-31T03:17:00.269Z,86
2022-10-31T03:18:00.647Z,86
2022-10-31T03:19:00.275Z,86
2022-10-31T03:20:04.765Z,86
2022-10-31T03:21:00.314Z,86
2022-10-31T03:22:00.400Z,86
2022-10-31T03:23:00.329Z,86
2022-10-31T03:24:00.394Z,86
2022-10-31T03:25:03.265Z,86
2022-10-31T03:26:00.441Z,86
2022-10-31T03:27:00.379Z,86
2022-10-31T03:28:00.765Z,86
2022-10-31T03:29:00.354Z,86
2022-10-31T03:30:04.721Z,86
2022-10-31T03:31:02.355Z,86
2022-10-31T03:32:00.454Z,86
2022-10-31T03:33:00.760Z,86
2022-10-31T03:34:00.853Z,86
2022-10-31T03:35:05.014Z,86
2022-10-31T03:36:00.477Z,86
2022-10-31T03:37:00.418Z,86
2022-10-31T03:38:04.200Z,86
2022-10-31T03:39:00.432Z,86
2022-10-31T03:40:04.128Z,86
2022-10-31T03:41:00.434Z,86
2022-10-31T03:42:00.526Z,86
2022-10-31T03:43:00.598Z,86
2022-10-31T03:44:00.555Z,86
2022-10-31T03:45:03.485Z,86
2022-10-31T03:46:00.569Z,86
2022-10-31T03:47:00.483Z,86
2022-10-31T03:48:00.778Z,86
2022-10-31T03:49:00.480Z,86
2022-10-31T03:50:03.921Z,86
2022-10-31T03:51:00.516Z,86
2022-10-31T03:52:00.605Z,87
2022-10-31T03:53:00.514Z,87
2022-10-31T03:54:00.602Z,87
2022-10-31T03:55:03.186Z,87
2022-10-31T03:56:00.627Z,87
2022-10-31T03:57:00.538Z,87
2022-10-31T03:58:01.210Z,87
2022-10-31T03:59:00.546Z,87
2022-10-31T04:00:04.188Z,87
2022-10-31T04:01:00.635Z,87
2022-10-31T04:02:00.817Z,87
2022-10-31T04:03:00.967Z,87
2022-10-31T04:04:00.676Z,87
2022-10-31T04:05:03.475Z,87
2022-10-31T04:06:00.662Z,87
2022-10-31T04:07:00.596Z,87
2022-10-31T04:08:00.672Z,87
2022-10-31T04:09:00.630Z,87
2022-10-31T04:10:04.105Z,87
2022-10-31T04:11:00.622Z,87
2022-10-31T04:12:00.718Z,87
2022-10-31T04:13:00.865Z,87
2022-10-31T04:14:00.762Z,87
2022-10-31T04:15:03.467Z,87
2022-10-31T04:16:00.758Z,87
2022-10-31T04:17:00.665Z,87
2022-10-31T04:18:01.081Z,87
2022-10-31T04:19:00.683Z,87
2022-10-31T04:20:04.106Z,87
2022-10-31T04:21:00.692Z,87
2022-10-31T04:22:00.796Z,87
2022-10-31T04:23:00.692Z,87
2022-10-31T04:24:00.781Z,87
2022-10-31T04:25:03.619Z,87
2022-10-31T04:26:00.801Z,87
2022-10-31T04:27:00.731Z,87
2022-10-31T04:28:01.199Z,87
2022-10-31T04:29:00.754Z,87
2022-10-31T04:30:06.230Z,87
2022-10-31T04:31:00.769Z,87
2022-10-31T04:32:00.844Z,87
2022-10-31T04:33:01.080Z,87
2022-10-31T04:34:00.891Z,87
2022-10-31T04:35:03.505Z,87
2022-10-31T04:36:00.871Z,87
2022-10-31T04:37:00.801Z,87
2022-10-31T04:38:00.896Z,87
2022-10-31T04:39:00.828Z,87
2022-10-31T04:40:05.835Z,87
2022-10-31T04:41:00.820Z,87
2022-10-31T04:42:00.906Z,87
2022-10-31T04:43:01.180Z,87
2022-10-31T04:44:00.904Z,87
2022-10-31T04:45:03.822Z,87
2022-10-31T04:46:00.994Z,87
2022-10-31T04:47:00.867Z,87
2022-10-31T04:48:01.284Z,87
2022-10-31T04:49:00.884Z,87
2022-10-31T04:50:05.855Z,88
2022-10-31T04:51:00.907Z,88
2022-10-31T04:52:00.987Z,88
2022-10-31T04:53:00.914Z,88
2022-10-31T04:54:00.990Z,88
2022-10-31T04:55:03.966Z,88
2022-10-31T04:56:00.992Z,88
2022-10-31T04:57:00.934Z,88
2022-10-31T04:58:01.323Z,88
2022-10-31T04:59:00.931Z,88
2022-10-31T05:00:06.091Z,88
2022-10-31T05:01:01.000Z,88
2022-10-31T05:02:01.183Z,88
2022-10-31T05:03:01.368Z,88
2022-10-31T05:04:01.114Z,88
2022-10-31T05:05:03.989Z,88
2022-10-31T05:06:01.089Z,88
2022-10-31T05:07:01.018Z,88
2022-10-31T05:08:01.083Z,88
2022-10-31T05:09:01.036Z,88
2022-10-31T05:10:05.774Z,88
2022-10-31T05:11:04.227Z,88
2022-10-31T05:12:01.127Z,88
2022-10-31T05:13:01.653Z,88
2022-10-31T05:14:01.118Z,88
2022-10-31T05:15:05.624Z,88
2022-10-31T05:16:01.298Z,88
2022-10-31T05:17:01.071Z,88
2022-10-31T05:18:01.560Z,88
2022-10-31T05:19:01.101Z,88
2022-10-31T05:20:05.744Z,88
2022-10-31T05:21:01.124Z,88
2022-10-31T05:22:01.216Z,88
2022-10-31T05:23:01.122Z,88
2022-10-31T05:24:01.221Z,88
2022-10-31T05:25:05.805Z,88
2022-10-31T05:26:01.220Z,88
2022-10-31T05:27:01.178Z,88
2022-10-31T05:28:01.614Z,88
2022-10-31T05:29:00.179Z,88
2022-10-31T05:30:03.373Z,88
2022-10-31T05:31:00.214Z,88
2022-10-31T05:32:00.273Z,88
2022-10-31T05:33:00.629Z,88
2022-10-31T05:34:00.547Z,88
2022-10-31T05:35:04.473Z,88
2022-10-31T05:36:00.326Z,88
2022-10-31T05:37:00.249Z,88
2022-10-31T05:38:00.306Z,88
2022-10-31T05:39:00.260Z,88
2022-10-31T05:40:08.057Z,88
2022-10-31T05:41:00.265Z,88
2022-10-31T05:42:00.367Z,88
2022-10-31T05:43:00.598Z,88
2022-10-31T05:44:00.351Z,88
2022-10-31T05:45:03.186Z,88
2022-10-31T05:46:00.493Z,88
2022-10-31T05:47:00.309Z,88
2022-10-31T05:48:00.778Z,88
2022-10-31T05:49:02.928Z,88
2022-10-31T05:50:04.725Z,88
2022-10-31T05:51:00.381Z,88
2022-10-31T05:52:00.451Z,88
2022-10-31T05:53:00.480Z,88
2022-10-31T05:54:00.534Z,88
2022-10-31T05:55:03.330Z,88
2022-10-31T05:56:00.468Z,88
2022-10-31T05:57:00.414Z,88
2022-10-31T05:58:00.920Z,88
2022-10-31T05:59:00.395Z,88
2022-10-31T06:00:04.906Z,88
2022-10-31T06:01:00.416Z,88
2022-10-31T06:02:00.493Z,88
2022-10-31T06:03:00.530Z,88
2022-10-31T06:04:00.531Z,88
2022-10-31T06:05:03.578Z,89
2022-10-31T06:06:00.584Z,89
2022-10-31T06:07:00.470Z,89
2022-10-31T06:08:01.013Z,89
2022-10-31T06:09:00.489Z,89
2022-10-31T06:10:04.870Z,89
2022-10-31T06:11:00.497Z,89
2022-10-31T06:12:00.574Z,89
2022-10-31T06:13:00.509Z,89
2022-10-31T06:14:00.585Z,89
2022-10-31T06:15:03.563Z,88
2022-10-31T06:16:00.623Z,88
2022-10-31T06:17:00.534Z,88
2022-10-31T06:18:01.054Z,88
2022-10-31T06:19:00.557Z,88
2022-10-31T06:20:05.874Z,88
2022-10-31T06:21:00.576Z,88
2022-10-31T06:22:00.837Z,88
2022-10-31T06:23:00.931Z,88
2022-10-31T06:24:00.658Z,88
2022-10-31T06:25:04.815Z,88
2022-10-31T06:26:00.678Z,88
2022-10-31T06:27:00.611Z,88
2022-10-31T06:28:00.708Z,88
2022-10-31T06:29:03.095Z,88
2022-10-31T06:30:07.199Z,88
2022-10-31T06:31:00.670Z,88
2022-10-31T06:32:00.732Z,88
2022-10-31T06:33:01.091Z,88
2022-10-31T06:34:00.754Z,88
2022-10-31T06:35:03.988Z,88
2022-10-31T06:36:00.757Z,88
2022-10-31T06:37:00.678Z,88
2022-10-31T06:38:01.111Z,88
2022-10-31T06:39:00.704Z,88
2022-10-31T06:40:05.554Z,88
2022-10-31T06:41:00.699Z,88
2022-10-31T06:42:00.809Z,88
2022-10-31T06:43:00.719Z,88
2022-10-31T06:44:04.966Z,88
2022-10-31T06:45:04.027Z,88
2022-10-31T06:46:00.824Z,88
2022-10-31T06:47:00.745Z,88
2022-10-31T06:48:16.651Z,88
2022-10-31T06:49:00.747Z,88
2022-10-31T06:50:06.648Z,88
2022-10-31T06:51:00.776Z,88
2022-10-31T06:52:01.024Z,88
2022-10-31T06:53:00.853Z,88
2022-10-31T06:54:00.965Z,88
2022-10-31T06:55:04.048Z,88
2022-10-31T06:56:00.892Z,88
2022-10-31T06:57:00.826Z,88
2022-10-31T06:58:03.099Z,88
2022-10-31T06:59:00.824Z,88
2022-10-31T07:00:07.752Z,88
2022-10-31T07:01:00.940Z,88
2022-10-31T07:02:01.141Z,88
2022-10-31T07:03:00.882Z,88
2022-10-31T07:04:00.999Z,88
2022-10-31T07:05:04.208Z,88
2022-10-31T07:06:00.977Z,88
2022-10-31T07:07:00.885Z,88
2022-10-31T07:08:01.401Z,87
2022-10-31T07:09:00.918Z,87
2022-10-31T07:10:06.026Z,87
2022-10-31T07:11:00.916Z,87
2022-10-31T07:12:01.011Z,87
2022-10-31T07:13:01.336Z,87
2022-10-31T07:14:00.989Z,86
2022-10-31T07:15:08.776Z,86
2022-10-31T07:16:01.019Z,86
2022-10-31T07:17:00.957Z,86
2022-10-31T07:18:01.061Z,86
2022-10-31T07:19:00.964Z,86
2022-10-31T07:20:08.765Z,86
2022-10-31T07:21:01.038Z,86
2022-10-31T07:22:01.117Z,86
2022-10-31T07:23:01.499Z,86
2022-10-31T07:24:01.083Z,85
2022-10-31T07:25:06.534Z,85
2022-10-31T07:26:01.071Z,85
2022-10-31T07:27:01.078Z,85
2022-10-31T07:28:01.510Z,85
2022-10-31T07:29:01.027Z,84
2022-10-31T07:30:07.062Z,84
2022-10-31T07:31:01.049Z,84
2022-10-31T07:32:01.143Z,84
2022-10-31T07:33:01.077Z,84
2022-10-31T07:34:01.116Z,84
2022-10-31T07:35:04.391Z,84
2022-10-31T07:36:01.172Z,84
2022-10-31T07:37:01.089Z,84
2022-10-31T07:38:01.585Z,84
2022-10-31T07:39:01.127Z,84
2022-10-31T07:40:02.560Z,84
2022-10-31T07:41:01.129Z,84
2022-10-31T07:42:01.199Z,84
2022-10-31T07:43:01.118Z,84
2022-10-31T07:44:01.221Z,83
2022-10-31T07:45:07.860Z,83
2022-10-31T07:46:01.204Z,83
2022-10-31T07:47:01.156Z,83
2022-10-31T07:48:01.640Z,83
2022-10-31T07:49:01.147Z,83
2022-10-31T07:50:05.976Z,83
2022-10-31T07:51:01.179Z,83
2022-10-31T07:52:00.409Z,83
2022-10-31T07:53:00.189Z,83
2022-10-31T07:54:00.838Z,83
2022-10-31T07:55:05.633Z,83
2022-10-31T07:56:00.421Z,83
2022-10-31T07:57:00.274Z,82
2022-10-31T07:58:01.425Z,82
2022-10-31T07:59:00.241Z,82
2022-10-31T08:00:11.424Z,82
2022-10-31T08:01:00.369Z,82
2022-10-31T08:02:00.378Z,82
2022-10-31T08:03:00.540Z,82
2022-10-31T08:04:01.406Z,81
2022-10-31T08:05:04.920Z,81
2022-10-31T08:06:00.392Z,81
2022-10-31T08:07:00.318Z,81
2022-10-31T08:08:01.599Z,81
2022-10-31T08:09:00.329Z,81
2022-10-31T08:10:05.872Z,81
2022-10-31T08:11:00.331Z,81
2022-10-31T08:12:00.495Z,81
2022-10-31T08:13:00.389Z,81
2022-10-31T08:14:00.493Z,81
2022-10-31T08:15:04.584Z,81
2022-10-31T08:16:01.064Z,81
2022-10-31T08:17:00.383Z,81
2022-10-31T08:18:01.704Z,81
2022-10-31T08:19:00.372Z,81
2022-10-31T08:20:04.979Z,82
2022-10-31T08:21:00.419Z,82
2022-10-31T08:22:00.496Z,81
2022-10-31T08:23:00.421Z,81
2022-10-31T08:24:01.262Z,81
2022-10-31T08:25:03.525Z,81
2022-10-31T08:26:03.580Z,81
2022-10-31T08:27:00.436Z,81
2022-10-31T08:28:00.761Z,81
2022-10-31T08:29:00.473Z,81
2022-10-31T08:30:07.769Z,81
2022-10-31T08:31:00.459Z,81
2022-10-31T08:32:01.219Z,81
2022-10-31T08:33:00.473Z,81
2022-10-31T08:34:01.390Z,81
2022-10-31T08:35:07.694Z,81
2022-10-31T08:36:01.936Z,81
2022-10-31T08:37:00.486Z,81
2022-10-31T08:38:01.119Z,81
2022-10-31T08:39:02.131Z,81
2022-10-31T08:40:03.956Z,81
2022-10-31T08:41:00.505Z,81
2022-10-31T08:42:00.605Z,80
2022-10-31T08:43:00.527Z,80
2022-10-31T08:44:00.647Z,80
2022-10-31T08:45:03.741Z,80
2022-10-31T08:46:00.618Z,80
2022-10-31T08:47:00.566Z,80
2022-10-31T08:48:00.819Z,80
2022-10-31T08:49:00.556Z,80
2022-10-31T08:50:05.025Z,80
2022-10-31T08:51:00.587Z,80
2022-10-31T08:52:00.657Z,79
2022-10-31T08:53:05.086Z,79
2022-10-31T08:54:00.703Z,79
2022-10-31T08:55:03.469Z,79
2022-10-31T08:56:00.884Z,79
2022-10-31T08:57:00.640Z,79
2022-10-31T08:58:01.035Z,79
2022-10-31T08:59:00.633Z,79
2022-10-31T09:00:05.088Z,79
2022-10-31T09:01:00.741Z,79
2022-10-31T09:02:00.934Z,79
2022-10-31T09:03:00.704Z,79
2022-10-31T09:04:00.762Z,79
2022-10-31T09:05:06.247Z,79
2022-10-31T09:06:00.982Z,79
2022-10-31T09:07:20.272Z,79
2022-10-31T09:08:01.114Z,79
2022-10-31T09:09:00.753Z,79
2022-10-31T09:10:06.160Z,79
2022-10-31T09:11:00.745Z,79
2022-10-31T09:12:00.821Z,79
2022-10-31T09:13:00.771Z,79
2022-10-31T09:14:00.861Z,79
2022-10-31T09:15:04.959Z,80
2022-10-31T09:16:00.882Z,80
2022-10-31T09:17:00.783Z,80
2022-10-31T09:18:01.166Z,80
2022-10-31T09:19:00.831Z,80
2022-10-31T09:20:04.323Z,79
2022-10-31T09:21:00.845Z,79
2022-10-31T09:22:00.892Z,79
2022-10-31T09:23:00.853Z,79
2022-10-31T09:24:00.914Z,79
2022-10-31T09:25:05.054Z,79
2022-10-31T09:26:00.960Z,79
2022-10-31T09:27:00.868Z,79
2022-10-31T09:28:01.261Z,79
2022-10-31T09:29:00.888Z,79
2022-10-31T09:30:05.711Z,79
2022-10-31T09:31:00.899Z,79
2022-10-31T09:32:01.041Z,79
2022-10-31T09:33:00.920Z,78
2022-10-31T09:34:00.967Z,78
2022-10-31T09:35:04.069Z,78
2022-10-31T09:36:00.999Z,78
2022-10-31T09:37:00.930Z,78
2022-10-31T09:38:01.428Z,78
2022-10-31T09:39:00.940Z,78
2022-10-31T09:40:05.714Z,78
2022-10-31T09:41:00.965Z,78
2022-10-31T09:42:01.029Z,78
2022-10-31T09:43:00.967Z,76
2022-10-31T09:44:01.077Z,76
2022-10-31T09:45:04.097Z,75
2022-10-31T09:46:01.047Z,75
2022-10-31T09:47:00.995Z,75
2022-10-31T09:48:01.507Z,74
2022-10-31T09:49:00.996Z,74
2022-10-31T09:50:05.862Z,74
2022-10-31T09:51:01.029Z,73
2022-10-31T09:52:01.168Z,73
2022-10-31T09:53:01.379Z,73
2022-10-31T09:54:01.110Z,73
2022-10-31T09:55:04.016Z,73
2022-10-31T09:56:01.319Z,72
2022-10-31T09:57:01.063Z,72
2022-10-31T09:58:01.138Z,71
2022-10-31T09:59:01.067Z,71
2022-10-31T10:00:07.272Z,70
2022-10-31T10:01:01.226Z,70
2022-10-31T10:02:01.288Z,70
2022-10-31T10:03:01.513Z,70
2022-10-31T10:04:01.189Z,70
2022-10-31T10:05:04.163Z,70
2022-10-31T10:06:01.223Z,69
2022-10-31T10:07:01.160Z,69
2022-10-31T10:08:01.241Z,69
2022-10-31T10:09:01.167Z,69
2022-10-31T10:10:05.726Z,69
2022-10-31T10:11:00.187Z,68
2022-10-31T10:12:00.959Z,68
2022-10-31T10:13:02.328Z,68
2022-10-31T10:14:00.890Z,68
2022-10-31T10:15:03.371Z,68
2022-10-31T10:16:01.116Z,68
2022-10-31T10:17:00.216Z,68
2022-10-31T10:18:01.205Z,68
2022-10-31T10:19:00.260Z,68
2022-10-31T10:20:06.106Z,68
2022-10-31T10:21:00.242Z,68
2022-10-31T10:22:01.342Z,68
2022-10-31T10:23:00.692Z,68
2022-10-31T10:24:01.382Z,68
2022-10-31T10:25:03.390Z,68
2022-10-31T10:26:00.359Z,68
2022-10-31T10:27:00.278Z,68
2022-10-31T10:28:00.716Z,68
2022-10-31T10:29:00.282Z,68
2022-10-31T10:30:03.827Z,68
2022-10-31T10:31:00.298Z,68
2022-10-31T10:32:00.409Z,68
2022-10-31T10:33:00.321Z,68
2022-10-31T10:34:00.394Z,67
2022-10-31T10:35:03.284Z,67
2022-10-31T10:36:00.399Z,68
2022-10-31T10:37:00.350Z,68
2022-10-31T10:38:00.701Z,68
2022-10-31T10:39:00.359Z,68
2022-10-31T10:40:04.731Z,68
2022-10-31T10:41:00.372Z,69
2022-10-31T10:42:00.456Z,69
2022-10-31T10:43:00.390Z,69
2022-10-31T10:44:00.487Z,69
2022-10-31T10:45:03.407Z,69
2022-10-31T10:46:00.462Z,69
2022-10-31T10:47:00.406Z,69
2022-10-31T10:48:00.735Z,69
2022-10-31T10:49:00.420Z,69
2022-10-31T10:50:06.931Z,69
2022-10-31T10:51:00.451Z,69
2022-10-31T10:52:19.800Z,69
2022-10-31T10:53:00.446Z,69
2022-10-31T10:54:00.543Z,69
2022-10-31T10:55:05.033Z,69
2022-10-31T10:56:00.557Z,69
2022-10-31T10:57:00.491Z,69
2022-10-31T10:58:00.806Z,69
2022-10-31T10:59:00.486Z,69
2022-10-31T11:00:06.466Z,68
2022-10-31T11:01:00.588Z,68
2022-10-31T11:02:00.601Z,68
2022-10-31T11:03:00.968Z,68
2022-10-31T11:04:02.857Z,68
2022-10-31T11:05:03.594Z,68
2022-10-31T11:06:00.765Z,68
2022-10-31T11:07:00.557Z,68
2022-10-31T11:08:00.669Z,68
2022-10-31T11:09:00.586Z,67
2022-10-31T11:10:03.732Z,67
2022-10-31T11:11:00.595Z,67
2022-10-31T11:12:00.696Z,67
2022-10-31T11:13:00.962Z,67
2022-10-31T11:14:00.713Z,67
2022-10-31T11:15:03.625Z,67
2022-10-31T11:16:00.728Z,67
2022-10-31T11:17:00.654Z,67
2022-10-31T11:18:00.755Z,67
2022-10-31T11:19:00.653Z,67
2022-10-31T11:20:07.162Z,67
2022-10-31T11:21:00.696Z,67
2022-10-31T11:22:00.755Z,67
2022-10-31T11:23:00.683Z,67
2022-10-31T11:24:00.777Z,67
2022-10-31T11:25:03.744Z,67
2022-10-31T11:26:00.812Z,67
2022-10-31T11:27:00.709Z,67
2022-10-31T11:28:00.756Z,67
2022-10-31T11:29:00.708Z,67
2022-10-31T11:30:05.703Z,67
2022-10-31T11:31:00.746Z,67
2022-10-31T11:32:00.846Z,67
2022-10-31T11:33:01.066Z,67
2022-10-31T11:34:00.805Z,67
2022-10-31T11:35:03.894Z,67
2022-10-31T11:36:00.842Z,67
2022-10-31T11:37:00.789Z,67
2022-10-31T11:38:01.385Z,67
2022-10-31T11:39:00.798Z,67
2022-10-31T11:40:05.715Z,67
2022-10-31T11:41:00.817Z,67
2022-10-31T11:42:04.866Z,67
2022-10-31T11:43:00.836Z,67
2022-10-31T11:44:00.913Z,66
2022-10-31T11:45:03.741Z,66
2022-10-31T11:46:00.909Z,66
2022-10-31T11:47:00.865Z,67
2022-10-31T11:48:01.362Z,67
2022-10-31T11:49:00.876Z,67
2022-10-31T11:50:06.744Z,67
2022-10-31T11:51:00.915Z,67
2022-10-31T11:52:00.998Z,66
2022-10-31T11:53:00.919Z,66
2022-10-31T11:54:03.056Z,66
2022-10-31T11:55:05.069Z,66
2022-10-31T11:56:01.046Z,66
2022-10-31T11:57:00.948Z,65
2022-10-31T11:58:01.302Z,65
2022-10-31T11:59:00.956Z,65
2022-10-31T12:00:07.091Z,65
2022-10-31T12:01:00.977Z,65
2022-10-31T12:02:01.303Z,64
2022-10-31T12:03:01.330Z,64
2022-10-31T12:04:01.047Z,64
2022-10-31T12:05:03.835Z,64
2022-10-31T12:06:01.091Z,64
2022-10-31T12:07:01.052Z,64
2022-10-31T12:08:04.387Z,64
2022-10-31T12:09:01.030Z,63
2022-10-31T12:10:05.783Z,63
2022-10-31T12:11:01.036Z,63
2022-10-31T12:12:01.117Z,63
2022-10-31T12:13:01.260Z,63
2022-10-31T12:14:03.868Z,63
2022-10-31T12:15:04.024Z,63
2022-10-31T12:16:01.145Z,63
2022-10-31T12:17:01.084Z,63
2022-10-31T12:18:01.170Z,63
2022-10-31T12:19:01.095Z,63
2022-10-31T12:20:06.023Z,63
2022-10-31T12:21:01.115Z,63
2022-10-31T12:22:01.189Z,62
2022-10-31T12:23:01.474Z,62
2022-10-31T12:24:01.212Z,62
2022-10-31T12:25:04.026Z,62
2022-10-31T12:26:01.257Z,62
2022-10-31T12:27:01.181Z,62
2022-10-31T12:28:01.239Z,62
2022-10-31T12:29:01.170Z,62
2022-10-31T12:30:07.409Z,62
2022-10-31T12:31:00.205Z,62
2022-10-31T12:32:00.297Z,62
2022-10-31T12:33:00.517Z,62
2022-10-31T12:34:00.287Z,62
2022-10-31T12:35:03.197Z,62
2022-10-31T12:36:00.296Z,62
2022-10-31T12:37:00.238Z,62
2022-10-31T12:38:00.712Z,62
2022-10-31T12:39:00.251Z,62
2022-10-31T12:40:04.718Z,62
2022-10-31T12:41:00.242Z,62
2022-10-31T12:42:00.359Z,61
2022-10-31T12:43:00.522Z,61
2022-10-31T12:44:00.358Z,61
2022-10-31T12:45:04.872Z,62
2022-10-31T12:46:00.362Z,62
2022-10-31T12:47:00.279Z,62
2022-10-31T12:48:00.391Z,62
2022-10-31T12:49:00.331Z,62
2022-10-31T12:50:04.898Z,62
2022-10-31T12:51:00.334Z,62
2022-10-31T12:52:00.412Z,62
2022-10-31T12:53:00.648Z,62
2022-10-31T12:54:00.424Z,62
2022-10-31T12:55:03.411Z,62
2022-10-31T12:56:00.427Z,62
2022-10-31T12:57:00.360Z,62
2022-10-31T12:58:00.856Z,62
2022-10-31T12:59:00.347Z,62
2022-10-31T13:00:03.834Z,62
2022-10-31T13:01:00.439Z,62
2022-10-31T13:02:00.650Z,62
2022-10-31T13:03:00.409Z,63
2022-10-31T13:04:00.469Z,63
2022-10-31T13:05:03.423Z,63
2022-10-31T13:06:00.497Z,63
2022-10-31T13:07:00.421Z,63
2022-10-31T13:08:00.733Z,63
2022-10-31T13:09:00.443Z,63
2022-10-31T13:10:04.929Z,63
2022-10-31T13:12:00.570Z,63
2022-10-31T13:13:00.779Z,63
2022-10-31T13:14:00.727Z,63
2022-10-31T13:15:04.693Z,64
2022-10-31T13:16:00.540Z,64
2022-10-31T13:17:00.497Z,64
2022-10-31T13:18:00.594Z,64
2022-10-31T13:19:00.501Z,64
2022-10-31T13:20:04.934Z,64
2022-10-31T13:21:00.548Z,64
2022-10-31T13:22:00.595Z,64
2022-10-31T13:23:00.854Z,64
2022-10-31T13:24:00.630Z,64
2022-10-31T13:25:03.465Z,64
2022-10-31T13:26:00.650Z,64
2022-10-31T13:27:00.581Z,64
2022-10-31T13:28:00.625Z,64
2022-10-31T13:29:00.583Z,64
2022-10-31T13:30:05.124Z,64
2022-10-31T13:31:00.575Z,64
2022-10-31T13:32:00.691Z,64
2022-10-31T13:33:00.865Z,64
2022-10-31T13:34:00.668Z,64
2022-10-31T13:35:03.379Z,64
2022-10-31T13:36:00.689Z,64
2022-10-31T13:37:00.608Z,64
2022-10-31T13:38:00.750Z,64
2022-10-31T13:39:00.678Z,64
2022-10-31T13:40:02.421Z,64
2022-10-31T13:41:00.648Z,63
2022-10-31T13:42:00.735Z,63
2022-10-31T13:43:00.979Z,63
2022-10-31T13:44:00.748Z,63
2022-10-31T13:45:01.233Z,63
2022-10-31T13:46:00.754Z,63
2022-10-31T13:47:00.676Z,63
2022-10-31T13:48:01.184Z,63
2022-10-31T13:49:00.688Z,63
2022-10-31T13:50:05.147Z,63
2022-10-31T13:51:00.746Z,63
2022-10-31T13:52:00.757Z,63
2022-10-31T13:53:00.720Z,62
2022-10-31T13:54:00.783Z,62
2022-10-31T13:55:03.542Z,62
2022-10-31T13:56:00.820Z,62
2022-10-31T13:57:00.737Z,62
2022-10-31T13:58:01.031Z,62
2022-10-31T13:59:00.739Z,62
2022-10-31T14:00:05.525Z,62
2022-10-31T14:01:00.884Z,62
2022-10-31T14:02:01.142Z,62
2022-10-31T14:03:00.830Z,62
2022-10-31T14:04:12.688Z,62
2022-10-31T14:05:03.524Z,62
2022-10-31T14:06:00.879Z,63
2022-10-31T14:07:00.817Z,63
2022-10-31T14:08:01.245Z,62
2022-10-31T14:09:00.899Z,62
2022-10-31T14:10:05.944Z,62
2022-10-31T14:11:00.914Z,62
2022-10-31T14:12:00.938Z,62
2022-10-31T14:13:00.849Z,62
2022-10-31T14:14:00.946Z,62
2022-10-31T14:15:03.938Z,62
2022-10-31T14:16:00.912Z,61